Time;durP1;ratioP1;P1;durP2;ratioP2;P2;SDS_P1;SDS_P2;PMS_P1;PMS_P2;Temp;Humidity;BMP_temperature;BMP_pressure;BME280_temperature;BME280_humidity;BME280_pressure;Samples;Min_cycle;Max_cycle;Signal;HPM_P1;HPM_P2
2022/10/25 00:02:31;;;;;;;11.27;2.50;;;;;;;-145.69;100.00;52555.28;5074007;28;20387;-81
2022/10/25 00:04:57;;;;;;;10.47;2.57;;;;;;;-145.69;100.00;52527.56;5074364;28;20548;-81
2022/10/25 00:07:24;;;;;;;7.27;2.57;;;;;;;-145.69;100.00;52537.47;5074099;28;20198;-81
2022/10/25 00:09:50;;;;;;;6.77;2.73;;;;;;;-145.69;100.00;52533.50;5074343;28;20202;-81
2022/10/25 00:12:19;;;;;;;4.23;2.33;;;;;;;-145.69;100.00;52533.50;5074427;28;20202;-82
2022/10/25 00:14:46;;;;;;;9.43;2.90;;;;;;;-145.69;100.00;52543.41;5073653;28;20202;-82
2022/10/25 00:17:14;;;;;;;13.67;2.80;;;;;;;-145.69;100.00;52551.31;5073481;28;20198;-82
2022/10/25 00:19:40;;;;;;;9.00;3.00;;;;;;;-145.69;100.00;52559.25;5073328;28;20297;-82
2022/10/25 00:22:07;;;;;;;10.87;2.57;;;;;;;-145.69;100.00;52567.16;5073226;28;20275;-81
2022/10/25 00:24:33;;;;;;;5.67;2.63;;;;;;;-145.69;100.00;52545.38;5073986;28;20210;-81
2022/10/25 00:27:00;;;;;;;8.53;2.30;;;;;;;-145.69;100.00;52551.31;5073997;28;20205;-82
2022/10/25 00:29:26;;;;;;;8.20;2.63;;;;;;;-145.69;100.00;52590.94;5073405;28;20646;-81
2022/10/25 00:31:53;;;;;;;12.93;3.00;;;;;;;-145.69;100.00;52549.34;5073319;28;20207;-82
2022/10/25 00:34:21;;;;;;;17.83;3.27;;;;;;;-145.69;100.00;52553.31;5073190;28;20201;-82
2022/10/25 00:36:47;;;;;;;12.33;2.67;;;;;;;-145.69;100.00;52545.38;5072554;28;20334;-82
2022/10/25 00:39:14;;;;;;;11.07;2.80;;;;;;;-145.69;100.00;52515.69;5072834;28;20678;-83
2022/10/25 00:41:40;;;;;;;12.33;3.20;;;;;;;-145.69;100.00;52535.47;5073026;28;20210;-82
2022/10/25 00:44:50;;;;;;;9.37;2.60;;;;;;;-145.69;100.00;52563.22;5072918;28;20201;-82
2022/10/25 00:47:45;;;;;;;7.03;2.20;;;;;;;-145.69;100.00;52579.06;5058052;28;20210;-83
2022/10/25 00:50:22;;;;;;;8.50;2.30;;;;;;;-145.69;100.00;52563.22;5073217;28;20210;-82
2022/10/25 00:52:53;;;;;;;9.70;2.37;;;;;;;-145.69;100.00;52586.97;5072986;28;20204;-82
2022/10/25 00:55:24;;;;;;;8.43;3.23;;;;;;;-145.69;100.00;52541.44;5073070;28;20226;-83
2022/10/25 00:57:56;;;;;;;12.93;3.77;;;;;;;-145.69;100.00;52551.31;5072635;28;20194;-83
2022/10/25 01:00:23;;;;;;;22.43;3.87;;;;;;;-145.69;100.00;52547.38;5072462;28;20207;-83
2022/10/25 01:02:49;;;;;;;17.93;2.93;;;;;;;-145.69;100.00;52531.53;5072900;28;20201;-83
2022/10/25 01:05:18;;;;;;;13.83;3.37;;;;;;;-145.69;100.00;52563.22;5073122;28;20644;-84
2022/10/25 01:07:45;;;;;;;12.70;3.00;;;;;;;-145.69;100.00;52535.47;5081024;28;20204;-84
2022/10/25 01:10:12;;;;;;;11.10;3.20;;;;;;;-145.69;100.00;52569.16;5092876;28;20210;-83
2022/10/25 01:12:38;;;;;;;7.77;3.37;;;;;;;-145.69;100.00;52535.47;5092273;28;20190;-82
2022/10/25 01:15:06;;;;;;;11.13;3.33;;;;;;;-145.69;100.00;52523.59;5074001;28;20210;-84
2022/10/25 01:17:45;;;;;;;34.93;3.20;;;;;;;-145.69;100.00;52573.13;5072655;28;20195;-83
2022/10/25 01:23:26;;;;;;;11.77;3.23;;;;;;;-145.69;100.00;52543.41;5152136;27;21076;-84
2022/10/25 01:26:19;;;;;;;8.87;3.77;;;;;;;-145.69;100.00;52553.31;5152484;27;20196;-85
2022/10/25 01:29:04;;;;;;;7.10;3.87;;;;;;;-145.69;100.00;52573.13;5151931;27;20196;-84
2022/10/25 01:31:40;;;;;;;14.33;4.10;;;;;;;-145.69;100.00;52553.31;5152469;27;20203;-85
2022/10/25 01:34:15;;;;;;;4.97;2.87;;;;;;;-145.69;100.00;52559.25;5151998;27;20206;-85
2022/10/25 01:36:46;;;;;;;10.63;3.83;;;;;;;-145.69;100.00;52549.34;5152324;27;20252;-84
2022/10/25 01:39:17;;;;;;;18.07;3.97;;;;;;;-145.69;100.00;52547.38;5152224;27;20207;-83
2022/10/25 01:41:53;;;;;;;17.13;3.53;;;;;;;-145.69;100.00;52555.28;5132192;27;20228;-84
2022/10/25 01:44:32;;;;;;;8.10;3.00;;;;;;;-145.69;100.00;52579.06;5132691;27;20207;-85
2022/10/25 01:47:03;;;;;;;13.10;4.00;;;;;;;-145.69;100.00;52575.09;5130919;28;20203;-84
2022/10/25 01:49:38;;;;;;;19.17;4.90;;;;;;;-145.69;100.00;52539.44;5135416;27;20192;-85
2022/10/25 01:52:05;;;;;;;17.27;4.30;;;;;;;-145.69;100.00;52583.00;5151988;27;20290;-85
2022/10/25 01:54:31;;;;;;;29.23;5.07;;;;;;;-145.69;100.00;52549.34;5151826;27;20193;-85
2022/10/25 01:57:15;;;;;;;22.47;3.77;;;;;;;-145.69;100.00;52559.25;5151810;27;20288;-85
2022/10/25 02:00:04;;;;;;;18.47;3.73;;;;;;;-145.69;100.00;52571.13;5150870;27;20189;-84
2022/10/25 02:02:38;;;;;;;12.80;5.60;;;;;;;-145.69;100.00;52555.28;5151107;27;20459;-82
2022/10/25 02:05:13;;;;;;;11.10;3.60;;;;;;;-145.69;100.00;52557.28;5155040;27;20196;-83
2022/10/25 02:07:43;;;;;;;11.67;3.43;;;;;;;-145.69;100.00;52569.16;5160507;27;20203;-82
2022/10/25 02:10:16;;;;;;;12.20;3.00;;;;;;;-145.69;100.00;52590.94;5157716;27;20783;-83
2022/10/25 02:12:55;;;;;;;13.97;3.47;;;;;;;-145.69;100.00;52543.41;5158174;27;20204;-83
2022/10/25 02:15:27;;;;;;;18.00;4.17;;;;;;;-145.69;100.00;52523.59;5156308;27;20223;-82
2022/10/25 02:17:59;;;;;;;10.40;4.00;;;;;;;-145.69;100.00;52553.31;5162665;27;20206;-82
2022/10/25 02:20:30;;;;;;;9.90;3.80;;;;;;;-145.69;100.00;52567.16;5159612;27;20200;-83
2022/10/25 02:22:58;;;;;;;17.93;4.27;;;;;;;-145.69;100.00;52571.13;5155545;27;20240;-83
2022/10/25 02:25:25;;;;;;;11.27;4.30;;;;;;;-145.69;100.00;52551.31;5152675;27;20555;-83
2022/10/25 02:27:54;;;;;;;18.63;4.43;;;;;;;-145.69;100.00;52565.19;5151349;27;20203;-83
2022/10/25 02:30:21;;;;;;;15.50;4.17;;;;;;;-145.69;100.00;52551.31;5150872;27;20199;-83
2022/10/25 02:32:47;;;;;;;10.90;4.20;;;;;;;-145.69;100.00;52563.22;5146852;27;20208;-82
2022/10/25 02:35:18;;;;;;;12.23;4.30;;;;;;;-145.69;100.00;52561.22;5137245;27;20212;-82
2022/10/25 02:37:44;;;;;;;17.53;3.93;;;;;;;-145.69;100.00;52583.00;5138004;27;20554;-83
2022/10/25 02:40:12;;;;;;;19.87;4.93;;;;;;;-145.69;100.00;52557.28;5137435;27;20208;-82
2022/10/25 02:42:38;;;;;;;14.17;3.90;;;;;;;-145.69;100.00;52565.19;5137149;27;20590;-83
2022/10/25 02:45:06;;;;;;;15.63;4.73;;;;;;;-145.69;100.00;52583.00;5137200;27;20582;-83
2022/10/25 02:47:32;;;;;;;14.40;3.97;;;;;;;-145.69;100.00;52535.47;5136983;27;20199;-83
2022/10/25 02:49:59;;;;;;;14.83;4.47;;;;;;;-145.69;100.00;52545.38;5137511;27;20196;-81
2022/10/25 02:52:27;;;;;;;13.07;4.30;;;;;;;-145.69;100.00;52583.00;5138310;27;20197;-82
2022/10/25 02:54:53;;;;;;;15.10;4.07;;;;;;;-145.69;100.00;52575.09;5137761;27;20206;-81
2022/10/25 02:57:22;;;;;;;17.10;3.83;;;;;;;-145.69;100.00;52553.31;5138104;27;20204;-82
2022/10/25 02:59:49;;;;;;;13.90;3.57;;;;;;;-145.69;100.00;52592.91;5151681;27;20222;-82
2022/10/25 03:02:15;;;;;;;7.57;3.10;;;;;;;-145.69;100.00;52559.25;5158847;27;20224;-81
2022/10/25 03:04:42;;;;;;;13.77;3.93;;;;;;;-145.69;100.00;52545.38;5158956;27;20203;-81
2022/10/25 03:07:08;;;;;;;17.50;4.70;;;;;;;-145.69;100.00;52575.09;5158985;27;20202;-81
2022/10/25 03:09:36;;;;;;;14.97;4.07;;;;;;;-145.69;100.00;52573.13;5158698;27;20666;-82
2022/10/25 03:12:03;;;;;;;9.83;3.93;;;;;;;-145.69;100.00;52579.06;5128957;27;20205;-81
2022/10/25 03:14:29;;;;;;;13.43;3.80;;;;;;;-145.69;100.00;52547.38;5118555;28;20284;-82
2022/10/25 03:16:56;;;;;;;13.73;3.60;;;;;;;-145.69;100.00;52586.97;5117869;28;20198;-81
2022/10/25 03:19:23;;;;;;;14.30;3.80;;;;;;;-145.69;100.00;52586.97;5118465;28;20229;-81
2022/10/25 03:21:49;;;;;;;17.70;3.67;;;;;;;-145.69;100.00;52555.28;5117891;28;20790;-82
2022/10/25 03:24:16;;;;;;;11.07;4.33;;;;;;;-145.69;100.00;52561.22;5118570;28;20193;-82
2022/10/25 03:26:44;;;;;;;17.57;4.50;;;;;;;-145.69;100.00;52531.53;5117644;28;20194;-82
2022/10/25 03:29:10;;;;;;;11.47;4.03;;;;;;;-145.69;100.00;52583.00;5138461;27;20564;-81
2022/10/25 03:31:37;;;;;;;20.67;4.17;;;;;;;-145.69;100.00;52571.13;5159595;27;20203;-82
2022/10/25 03:34:03;;;;;;;12.60;3.60;;;;;;;-145.69;100.00;52537.47;5152417;27;20228;-81
2022/10/25 03:36:30;;;;;;;12.67;3.60;;;;;;;-145.69;100.00;52581.03;5137508;27;20196;-81
2022/10/25 03:38:57;;;;;;;12.23;3.27;;;;;;;-145.69;100.00;52571.13;5138465;27;20591;-82
2022/10/25 03:41:23;;;;;;;9.57;3.73;;;;;;;-145.69;100.00;52586.97;5140541;27;20197;-82
2022/10/25 03:43:51;;;;;;;11.30;3.53;;;;;;;-145.69;100.00;52561.22;5139931;27;20307;-82
2022/10/25 03:46:17;;;;;;;17.03;3.53;;;;;;;-145.69;100.00;52569.16;5138476;27;20201;-82
2022/10/25 03:48:44;;;;;;;8.27;3.40;;;;;;;-145.69;100.00;52579.06;5138567;27;20203;-82
2022/10/25 03:51:10;;;;;;;17.53;3.50;;;;;;;-145.69;100.00;52606.78;5138931;27;20196;-82
2022/10/25 03:53:37;;;;;;;22.03;3.50;;;;;;;-145.69;100.00;52569.16;5139241;27;20213;-82
2022/10/25 03:56:04;;;;;;;12.40;3.33;;;;;;;-145.69;100.00;52543.41;5139111;27;20196;-82
2022/10/25 03:58:30;;;;;;;15.07;2.90;;;;;;;-145.69;100.00;52571.13;5139708;27;20292;-83
2022/10/25 04:00:59;;;;;;;14.57;4.93;;;;;;;-145.69;100.00;52571.13;5142065;27;20223;-82
2022/10/25 04:03:26;;;;;;;11.87;4.37;;;;;;;-145.69;100.00;52583.00;5152982;27;20693;-83
2022/10/25 04:05:52;;;;;;;22.33;4.70;;;;;;;-145.69;100.00;52553.31;5159691;27;20203;-82
2022/10/25 04:08:19;;;;;;;11.40;3.90;;;;;;;-145.69;100.00;52539.44;5163333;27;20669;-83
2022/10/25 04:10:46;;;;;;;11.23;3.83;;;;;;;-145.69;100.00;52575.09;5160918;27;20191;-82
2022/10/25 04:13:13;;;;;;;24.23;3.90;;;;;;;-145.69;100.00;52598.84;5162024;27;20692;-82
2022/10/25 04:15:39;;;;;;;11.03;3.50;;;;;;;-145.69;100.00;52563.22;5159263;27;20292;-82
2022/10/25 04:18:07;;;;;;;19.90;4.03;;;;;;;-145.69;100.00;52581.03;5158883;27;20226;-81
2022/10/25 04:20:34;;;;;;;10.40;3.00;;;;;;;-145.69;100.00;52543.41;5157538;27;20202;-82
2022/10/25 04:23:00;;;;;;;15.60;3.57;;;;;;;-145.69;100.00;52573.13;5157152;27;20236;-82
2022/10/25 04:25:28;;;;;;;12.43;3.20;;;;;;;-145.69;100.00;52559.25;5157709;27;20203;-82
2022/10/25 04:27:55;;;;;;;10.40;3.10;;;;;;;-145.69;100.00;52594.91;5157836;27;20200;-81
2022/10/25 04:30:21;;;;;;;13.13;3.13;;;;;;;-145.69;100.00;52602.81;5157613;27;20200;-82
2022/10/25 04:32:48;;;;;;;17.23;3.37;;;;;;;-145.69;100.00;52598.84;5158243;27;20210;-82
2022/10/25 04:35:16;;;;;;;19.93;3.20;;;;;;;-145.69;100.00;52579.06;5160112;27;20198;-82
2022/10/25 04:37:42;;;;;;;10.83;2.73;;;;;;;-145.69;100.00;52604.81;5159394;27;20294;-81
2022/10/25 04:40:10;;;;;;;12.93;2.90;;;;;;;-145.69;100.00;52590.94;5158973;27;20200;-82
2022/10/25 04:42:37;;;;;;;7.77;2.83;;;;;;;-145.69;100.00;52618.66;5158751;27;20231;-83
2022/10/25 04:45:04;;;;;;;13.70;2.50;;;;;;;-145.69;100.00;52559.25;5158920;27;20218;-82
2022/10/25 04:47:32;;;;;;;15.57;3.37;;;;;;;-145.69;100.00;52573.13;5160090;27;20196;-83
2022/10/25 04:49:58;;;;;;;12.37;3.47;;;;;;;-145.69;100.00;52577.06;5159858;27;20200;-83
2022/10/25 04:52:28;;;;;;;16.00;3.60;;;;;;;-145.69;100.00;52559.25;5159173;27;20196;-82
2022/10/25 04:54:54;;;;;;;14.90;4.33;;;;;;;-145.69;100.00;52569.16;5158326;27;20282;-82
2022/10/25 04:57:21;;;;;;;7.33;3.43;;;;;;;-145.69;100.00;52618.66;5159039;27;20203;-82
2022/10/25 04:59:47;;;;;;;12.97;3.23;;;;;;;-145.69;100.00;52594.91;5159742;27;20204;-82
2022/10/25 05:02:14;;;;;;;14.43;3.47;;;;;;;-145.69;100.00;52586.97;5151196;27;20228;-82
2022/10/25 05:04:42;;;;;;;21.10;3.20;;;;;;;-145.69;100.00;52610.75;5150163;27;20188;-82
2022/10/25 05:07:09;;;;;;;12.77;3.27;;;;;;;-145.69;100.00;52575.09;5151158;27;20203;-82
2022/10/25 05:09:36;;;;;;;12.43;3.03;;;;;;;-145.69;100.00;52614.72;5115058;28;20590;-81
2022/10/25 05:12:03;;;;;;;13.33;3.17;;;;;;;-145.69;100.00;52594.91;5117155;28;20197;-82
2022/10/25 05:14:30;;;;;;;20.07;3.63;;;;;;;-145.69;100.00;52612.72;5137301;27;20197;-84
2022/10/25 05:16:56;;;;;;;15.17;3.57;;;;;;;-145.69;100.00;52610.75;5156481;27;20200;-82
2022/10/25 05:19:23;;;;;;;16.10;3.63;;;;;;;-145.69;100.00;52610.75;5157610;27;20196;-83
2022/10/25 05:21:49;;;;;;;13.13;3.10;;;;;;;-145.69;100.00;52579.06;5157674;27;20239;-82
2022/10/25 05:24:16;;;;;;;19.13;3.93;;;;;;;-145.69;100.00;52569.16;5157503;27;20686;-82
2022/10/25 05:26:43;;;;;;;17.53;4.10;;;;;;;-145.69;100.00;52608.75;5157409;27;20204;-82
2022/10/25 05:29:11;;;;;;;11.73;3.87;;;;;;;-145.69;100.00;52586.97;5157382;27;20196;-82
2022/10/25 05:31:40;;;;;;;14.67;3.97;;;;;;;-145.69;100.00;52561.22;5157802;27;20238;-83
2022/10/25 05:34:07;;;;;;;11.77;3.83;;;;;;;-145.69;100.00;52575.09;5155546;27;20200;-81
2022/10/25 05:36:33;;;;;;;7.67;3.43;;;;;;;-145.69;100.00;52575.09;5156452;27;20223;-81
2022/10/25 05:39:01;;;;;;;14.10;3.93;;;;;;;-145.69;100.00;52598.84;5155879;27;20192;-82
2022/10/25 05:41:28;;;;;;;10.27;3.33;;;;;;;-145.69;100.00;52581.03;5155847;27;20550;-81
2022/10/25 05:43:55;;;;;;;11.40;3.30;;;;;;;-145.69;100.00;52590.94;5155653;27;20251;-82
2022/10/25 05:46:23;;;;;;;9.33;3.53;;;;;;;-145.69;100.00;52569.16;5155856;27;20666;-82
2022/10/25 05:48:52;;;;;;;15.27;3.50;;;;;;;-145.69;100.00;52612.72;5155900;27;20634;-82
2022/10/25 05:51:20;;;;;;;16.53;3.47;;;;;;;-145.69;100.00;52577.06;5155658;27;20195;-82
2022/10/25 05:53:48;;;;;;;16.63;3.80;;;;;;;-145.69;100.00;52608.75;5144282;27;20204;-82
2022/10/25 05:56:15;;;;;;;13.77;2.70;;;;;;;-145.69;100.00;52620.66;5135107;28;20209;-81
2022/10/25 05:58:42;;;;;;;6.20;2.57;;;;;;;-145.69;100.00;52571.13;5135099;27;20208;-81
2022/10/25 06:01:12;;;;;;;8.93;3.00;;;;;;;-145.69;100.00;52569.16;5134501;27;20205;-82
2022/10/25 06:03:38;;;;;;;21.10;3.10;;;;;;;-145.69;100.00;52600.84;5133891;28;20229;-83
2022/10/25 06:06:06;;;;;;;8.07;2.87;;;;;;;-145.69;100.00;52575.09;5134019;28;20314;-83
2022/10/25 06:08:34;;;;;;;10.60;2.77;;;;;;;-145.69;100.00;52559.25;5136360;27;20197;-82
2022/10/25 06:11:02;;;;;;;8.77;3.00;;;;;;;-145.69;100.00;52575.09;5138777;27;20207;-83
2022/10/25 06:13:28;;;;;;;9.57;3.00;;;;;;;-145.69;100.00;52561.22;5138749;27;20651;-82
2022/10/25 06:15:55;;;;;;;7.23;2.90;;;;;;;-145.69;100.00;52590.94;5138911;27;20540;-83
2022/10/25 06:18:23;;;;;;;8.43;3.07;;;;;;;-145.69;100.00;52600.84;5138887;27;20204;-81
2022/10/25 06:20:50;;;;;;;14.57;3.27;;;;;;;-145.69;100.00;52610.75;5151059;27;20208;-81
2022/10/25 06:23:16;;;;;;;10.30;3.40;;;;;;;-145.69;100.00;52598.84;5159879;27;20228;-82
2022/10/25 06:25:43;;;;;;;10.40;3.10;;;;;;;-145.69;100.00;52606.78;5158956;27;20203;-82
2022/10/25 06:28:09;;;;;;;17.43;3.17;;;;;;;-145.69;100.00;52583.00;5158338;27;20661;-81
2022/10/25 06:30:36;;;;;;;13.37;3.30;;;;;;;-145.69;100.00;52583.00;5159142;27;20198;-82
2022/10/25 06:33:02;;;;;;;8.43;2.70;;;;;;;-145.69;100.00;52561.22;5158670;27;20196;-81
2022/10/25 06:35:30;;;;;;;13.13;2.90;;;;;;;-145.69;100.00;52577.06;5158043;27;20196;-81
2022/10/25 06:37:58;;;;;;;13.77;2.80;;;;;;;-145.69;100.00;52638.47;5159048;27;20559;-81
2022/10/25 06:40:25;;;;;;;9.53;3.33;;;;;;;-145.69;100.00;52581.03;5158550;27;20196;-81
2022/10/25 06:42:53;;;;;;;10.40;3.40;;;;;;;-145.69;100.00;52585.00;5157680;27;20682;-81
2022/10/25 06:45:20;;;;;;;8.23;3.40;;;;;;;-145.69;100.00;52585.00;5156445;27;20219;-81
2022/10/25 06:47:46;;;;;;;15.23;3.40;;;;;;;-145.69;100.00;52569.16;5157577;27;20218;-81
2022/10/25 06:50:13;;;;;;;12.83;3.37;;;;;;;-145.69;100.00;52602.81;5156979;27;20196;-81
2022/10/25 06:52:41;;;;;;;8.50;3.07;;;;;;;-145.69;100.00;52618.66;5157501;27;20203;-80
2022/10/25 06:55:08;;;;;;;11.90;3.30;;;;;;;-145.69;100.00;52551.31;5157982;27;20200;-81
2022/10/25 06:57:34;;;;;;;15.13;3.43;;;;;;;-145.69;100.00;52561.22;5157460;27;20672;-80
2022/10/25 07:00:01;;;;;;;6.40;2.70;;;;;;;-145.69;100.00;52588.97;5154939;27;20204;-80
2022/10/25 07:02:27;;;;;;;9.63;2.30;;;;;;;-145.69;100.00;52586.97;5136478;27;20197;-80
2022/10/25 07:04:54;;;;;;;10.40;2.80;;;;;;;-145.69;100.00;52602.81;5146873;27;20677;-80
2022/10/25 07:07:20;;;;;;;9.90;2.90;;;;;;;-145.69;100.00;52579.06;5157111;27;20204;-81
2022/10/25 07:09:48;;;;;;;12.57;2.90;;;;;;;-145.69;100.00;52622.63;5157333;27;20702;-80
2022/10/25 07:12:15;;;;;;;13.90;2.87;;;;;;;-145.69;100.00;52581.03;5157482;27;20204;-80
2022/10/25 07:14:41;;;;;;;10.40;2.20;;;;;;;-145.69;100.00;52602.81;5157409;27;20196;-81
2022/10/25 07:17:08;;;;;;;13.10;2.57;;;;;;;-145.69;100.00;52616.69;5157263;27;20200;-80
2022/10/25 07:19:34;;;;;;;14.57;2.90;;;;;;;-145.69;100.00;52571.13;5156837;27;20196;-80
2022/10/25 07:22:01;;;;;;;8.53;2.13;;;;;;;-145.69;100.00;52606.78;5156709;27;20875;-80
2022/10/25 07:24:27;;;;;;;16.38;3.22;;;;;;;-145.69;100.00;52583.00;5155681;27;20452;-80
2022/10/25 07:26:55;;;;;;;9.07;2.50;;;;;;;-145.69;100.00;52618.66;5156858;27;20204;-80
2022/10/25 07:29:21;;;;;;;16.40;2.47;;;;;;;-145.69;100.00;52608.75;5157171;27;20192;-81
2022/10/25 07:31:48;;;;;;;7.90;2.23;;;;;;;-145.69;100.00;52563.22;5158269;27;20192;-82
2022/10/25 07:34:15;;;;;;;10.40;2.20;;;;;;;-145.69;100.00;52563.22;5157492;27;20207;-81
2022/10/25 07:36:45;;;;;;;11.83;2.80;;;;;;;-145.69;100.00;52575.09;5158557;27;20240;-81
2022/10/25 07:39:12;;;;;;;12.33;2.50;;;;;;;-145.69;100.00;52575.09;5157898;27;20200;-81
2022/10/25 07:41:38;;;;;;;11.83;2.93;;;;;;;-145.69;100.00;52586.97;5158718;27;20199;-81
2022/10/25 07:44:06;;;;;;;9.33;2.03;;;;;;;-145.69;100.00;52579.06;5158707;27;20231;-81
2022/10/25 07:46:32;;;;;;;21.60;2.73;;;;;;;-145.69;100.00;52586.97;5159138;27;20195;-81
2022/10/25 07:48:59;;;;;;;17.03;2.97;;;;;;;-145.69;100.00;52547.38;5159189;27;20192;-81
2022/10/25 07:51:25;;;;;;;14.97;2.90;;;;;;;-145.69;100.00;52555.28;5158361;27;20200;-82
2022/10/25 07:53:53;;;;;;;7.07;2.73;;;;;;;-145.69;100.00;52586.97;5160330;27;20208;-82
2022/10/25 07:56:20;;;;;;;13.27;2.70;;;;;;;-145.69;100.00;52567.16;5158478;27;20192;-83
2022/10/25 07:58:46;;;;;;;5.87;2.27;;;;;;;-145.69;100.00;52583.00;5156479;27;20201;-80
2022/10/25 08:01:19;;;;;;;11.77;2.53;;;;;;;-145.69;100.00;52551.31;5151569;27;20658;-80
2022/10/25 08:03:45;;;;;;;11.50;2.63;;;;;;;-145.69;100.00;52598.84;5137324;27;20691;-82
2022/10/25 08:06:12;;;;;;;10.17;2.73;;;;;;;-145.69;100.00;52557.28;5157206;27;20207;-82
2022/10/25 08:08:38;;;;;;;8.17;2.47;;;;;;;-145.69;100.00;52573.13;5149999;27;20189;-82
2022/10/25 08:11:06;;;;;;;12.67;3.07;;;;;;;-145.69;100.00;52539.44;5137774;27;20204;-82
2022/10/25 08:13:33;;;;;;;7.90;2.95;;;;;;;-145.69;100.00;52573.13;5135595;27;20219;-83
2022/10/25 08:16:00;;;;;;;12.18;2.72;;;;;;;-145.69;100.00;52535.47;5135310;27;20200;-84
2022/10/25 08:18:28;;;;;;;6.90;2.60;;;;;;;-145.69;100.00;52551.31;5135159;27;20196;-84
2022/10/25 08:20:55;;;;;;;20.43;2.90;;;;;;;-145.69;100.00;52567.16;5134936;27;20197;-84
2022/10/25 08:23:22;;;;;;;8.13;2.60;;;;;;;-145.69;100.00;52561.22;5134333;27;20223;-84
2022/10/25 08:25:49;;;;;;;7.03;2.53;;;;;;;-145.69;100.00;52555.28;5135135;27;20231;-84
2022/10/25 08:28:15;;;;;;;5.37;2.30;;;;;;;-145.69;100.00;52515.69;5135344;27;20193;-84
2022/10/25 08:30:42;;;;;;;6.80;2.70;;;;;;;-145.69;100.00;52575.09;5133963;27;20200;-83
2022/10/25 08:33:09;;;;;;;10.88;2.55;;;;;;;-145.69;100.00;52513.69;5133122;27;20193;-84
2022/10/25 08:35:37;;;;;;;11.05;2.72;;;;;;;-145.69;100.00;52551.31;5134899;27;20204;-84
2022/10/25 08:38:05;;;;;;;9.93;2.13;;;;;;;-145.69;100.00;52519.63;5134955;27;20197;-83
2022/10/25 08:40:42;;;;;;;8.57;2.22;;;;;;;-145.69;100.00;52537.47;5135917;27;20201;-83
2022/10/25 08:43:25;;;;;;;11.05;2.03;;;;;;;-145.69;100.00;52509.75;5136048;27;20201;-83
2022/10/25 08:45:55;;;;;;;6.40;1.70;;;;;;;-145.69;100.00;52549.34;5155470;27;20200;-84
2022/10/25 08:48:26;;;;;;;5.30;1.55;;;;;;;-145.69;100.00;52527.56;5146906;27;20197;-83
2022/10/25 08:50:57;;;;;;;8.77;2.13;;;;;;;-145.69;100.00;52559.25;5134650;27;20562;-83
2022/10/25 08:53:30;;;;;;;10.23;2.03;;;;;;;-145.69;100.00;52519.63;5134810;27;20223;-84
2022/10/25 08:55:58;;;;;;;14.68;1.92;;;;;;;-145.69;100.00;52531.53;5134358;27;20659;-82
2022/10/25 08:58:29;;;;;;;5.72;1.40;;;;;;;-145.69;100.00;52519.63;5134072;27;20193;-82
2022/10/25 09:01:02;;;;;;;4.78;1.48;;;;;;;-145.69;100.00;52541.44;5134247;27;20200;-84
2022/10/25 09:03:29;;;;;;;9.05;1.50;;;;;;;-145.69;100.00;52561.22;5134061;27;20220;-84
2022/10/25 09:06:09;;;;;;;8.75;1.45;;;;;;;-145.69;100.00;52551.31;5134053;27;20555;-83
2022/10/25 09:08:56;;;;;;;3.63;1.00;;;;;;;-145.69;100.00;52499.84;5131036;27;20197;-84
2022/10/25 09:11:39;;;;;;;3.20;1.00;;;;;;;-145.69;100.00;52476.06;5113529;28;20337;-83
2022/10/25 09:14:11;;;;;;;2.63;1.20;;;;;;;-145.69;100.00;52487.97;5151134;27;20192;-83
2022/10/25 09:16:44;;;;;;;7.28;1.05;;;;;;;-145.69;100.00;52507.75;5154654;27;20203;-83
2022/10/25 09:19:17;;;;;;;5.85;0.90;;;;;;;-145.69;100.00;52519.63;5154780;27;20207;-83
2022/10/25 09:21:49;;;;;;;5.90;1.33;;;;;;;-145.69;100.00;52482.00;5154608;27;20232;-82
2022/10/25 09:24:21;;;;;;;4.38;1.00;;;;;;;-145.69;100.00;52484.00;5154819;27;20223;-83
2022/10/25 09:26:58;;;;;;;7.85;1.20;;;;;;;-145.69;100.00;52470.13;5154807;27;20200;-83
2022/10/25 09:29:30;;;;;;;3.50;0.90;;;;;;;-145.69;100.00;52503.81;5154756;27;20196;-83
2022/10/25 09:31:59;;;;;;;5.97;1.10;;;;;;;-145.69;100.00;52460.22;5154602;27;20196;-81
2022/10/25 09:34:32;;;;;;;6.18;1.17;;;;;;;-145.69;100.00;52515.69;5154597;27;20249;-81
2022/10/25 09:37:06;;;;;;;7.05;1.10;;;;;;;-145.69;100.00;52531.53;5154816;27;20204;-83
2022/10/25 09:39:38;;;;;;;6.90;1.40;;;;;;;-145.69;100.00;52476.06;5154634;27;20202;-81
2022/10/25 09:42:14;;;;;;;1.55;0.98;;;;;;;-145.69;100.00;52489.94;5151156;27;20196;-80
2022/10/25 09:44:45;;;;;;;5.47;1.00;;;;;;;-145.69;100.00;52511.72;5137808;27;20223;-82
2022/10/25 09:47:23;;;;;;;5.70;0.90;;;;;;;-145.69;100.00;52487.97;5138357;27;20193;-83
2022/10/25 09:49:57;;;;;;;2.95;1.20;;;;;;;-145.69;100.00;52476.06;5139911;27;20567;-82
2022/10/25 09:52:34;;;;;;;5.38;1.02;;;;;;;-145.69;100.00;52476.06;5139117;27;20536;-83
2022/10/25 09:55:24;;;;;;;3.85;0.95;;;;;;;-145.69;100.00;52499.84;5129382;27;20193;-82
2022/10/25 09:57:51;;;;;;;3.38;0.80;;;;;;;-145.69;100.00;52487.97;5146621;27;20696;-83
2022/10/25 10:00:18;;;;;;;2.38;0.70;;;;;;;-145.69;100.00;52484.00;5137802;27;20720;-84
2022/10/25 10:02:44;;;;;;;2.92;0.80;;;;;;;-145.69;100.00;52485.97;5141025;27;20252;-83
2022/10/25 10:05:15;;;;;;;2.90;0.80;;;;;;;-145.69;100.00;52454.28;5137515;27;20691;-83
2022/10/25 10:07:44;;;;;;;3.67;0.90;;;;;;;-145.69;100.00;52460.22;5137411;27;20208;-84
2022/10/25 10:10:15;;;;;;;1.88;0.70;;;;;;;-145.69;100.00;52499.84;5137333;27;20619;-84
2022/10/25 10:12:46;;;;;;;5.55;0.80;;;;;;;-145.69;100.00;52476.06;5137464;27;20555;-84
2022/10/25 10:15:19;;;;;;;3.58;0.73;;;;;;;-145.69;100.00;52480.03;5137344;27;20230;-83
2022/10/25 10:17:45;;;;;;;3.40;0.80;;;;;;;-145.69;100.00;52474.09;5137065;27;20203;-83
2022/10/25 10:20:15;;;;;;;3.92;0.95;;;;;;;-145.69;100.00;52495.88;5137209;27;20574;-82
2022/10/25 10:22:50;;;;;;;2.05;0.80;;;;;;;-145.69;100.00;52476.06;5140791;27;20523;-83
2022/10/25 10:25:19;;;;;;;2.28;0.70;;;;;;;-145.69;100.00;52487.97;5140819;27;20220;-84
2022/10/25 10:27:47;;;;;;;3.20;0.77;;;;;;;-145.69;100.00;52484.00;5142050;27;20189;-83
2022/10/25 10:30:22;;;;;;;3.83;0.55;;;;;;;-145.69;100.00;52464.19;5142248;27;20257;-82
2022/10/25 10:32:54;;;;;;;2.58;0.70;;;;;;;-145.69;100.00;52485.97;5144354;27;20189;-82
2022/10/25 10:35:27;;;;;;;5.45;1.00;;;;;;;-145.69;100.00;52434.47;5146499;27;20254;-82
2022/10/25 10:38:13;;;;;;;1.42;0.63;;;;;;;-145.69;100.00;52468.16;5139717;27;20201;-82
2022/10/25 10:40:40;;;;;;;3.92;0.88;;;;;;;-145.69;100.00;52487.97;5147038;27;20188;-82
2022/10/25 10:43:23;;;;;;;1.52;0.60;;;;;;;-145.69;100.00;52440.44;5151597;27;20189;-83
2022/10/25 10:45:51;;;;;;;3.90;0.90;;;;;;;-145.69;100.00;52438.44;5139921;27;20228;-84
2022/10/25 10:48:20;;;;;;;6.18;0.60;;;;;;;-145.69;100.00;52464.19;5141875;27;20193;-83
2022/10/25 10:50:49;;;;;;;2.53;0.60;;;;;;;-145.69;100.00;52480.03;5121915;28;20279;-83
2022/10/25 10:53:21;;;;;;;4.68;0.73;;;;;;;-145.69;100.00;52472.13;5116927;28;20233;-83
2022/10/25 10:55:50;;;;;;;3.45;0.65;;;;;;;-145.69;100.00;52446.38;5115276;28;20439;-84
2022/10/25 10:58:18;;;;;;;2.40;0.70;;;;;;;-145.69;100.00;52482.00;5116134;28;20205;-84
2022/10/25 11:00:50;;;;;;;4.90;0.90;;;;;;;-145.69;100.00;52434.47;5118341;27;20197;-83
2022/10/25 11:03:45;;;;;;;2.13;0.63;;;;;;;-145.69;100.00;52470.13;5115694;28;20228;-83
2022/10/25 11:06:13;;;;;;;4.20;0.70;;;;;;;-145.69;100.00;52416.66;5115793;28;20206;-83
2022/10/25 11:08:41;;;;;;;5.35;0.65;;;;;;;-145.69;100.00;52456.28;5117733;28;20201;-84
2022/10/25 11:11:18;;;;;;;2.83;0.68;;;;;;;-145.69;100.00;52438.44;5116112;28;20647;-84
2022/10/25 11:13:52;;;;;;;5.45;0.50;;;;;;;-145.69;100.00;52440.44;5115767;28;20201;-84
2022/10/25 11:16:43;;;;;;;6.25;0.65;;;;;;;-145.69;100.00;52424.59;5115240;28;20196;-84
2022/10/25 11:19:39;;;;;;;1.27;0.60;;;;;;;-145.69;100.00;52420.63;5106243;28;20648;-84